首页
METAR-TAF:

METAR-TAF

机场 :

何塞·马蒂国际机场

哈瓦那, 古巴

纬度: 22-59N, 经度: 082-24W, 海拔: 59米

当前天气观测

该预报发布于31分钟前的22:55 UTC
静风
温度 27°C
湿度 79%
气压 1016 hPa
能見度: 9000
少量云层高于3000英尺

METAR: MUHA 232255Z 00000KT 9000 FEW030 27/23 Q1016

时间: 19:26 (23:26 UTC)

预报

该预报发布于6小时和26分钟前的17:00 UTC
预报有效从23日的 18点(UTC)到 24日的 18点(UTC)
风速5节,风向
能見度: 9000
少量云层高于2000英尺, 积雨云.
多云层高于3600英尺
短暂存在
从 23日的 20点(UTC)到 24日的 00点(UTC)
风速10节,风向北转东北
能見度: 3000
散云层高于1800英尺, 积雨云.
多云层高于2000英尺
雷暴, 雨
成为
从 24日的 04点(UTC)到 24日的 06点(UTC)
风速3节,风向
少量云层高于3000英尺

TAF: MUHA 231700Z 2318/2418 10005KT 9000 FEW020CB BKN036 TEMPO 2320/2400 03010KT 3000 TSRA SCT018CB BKN020 BECMG 2404/2406 09003KT FEW030

超过4000个机场的气象观测和天气预报(METAR&TAF报告)。

可查询的气象台以黄色和红色小点在地图上表示。

将鼠标移到小点上方,可查看气象台名称。

然后点击查看天气观测和预报。

如需切换地图:点击带黑十字的绿色按钮放大地图;点击带横线的绿色按钮缩小地图;或者点击绿色箭头查看邻近地区的地图。


METAR-TAF: